sensor_id;sensor_type;location;lat;lon;timestamp;pressure;altitude;pressure_sealevel;temperature;humidity
77081;BME280;66009;53.150;18.160;2023-03-31T06:54:08;99809.32;;;14.04;55.91
77081;BME280;66009;53.150;18.160;2023-03-31T06:58:00;99840.33;;;15.14;54.86
77081;BME280;66009;53.150;18.160;2023-03-31T07:00:27;99840.79;;;14.71;54.91
77081;BME280;66009;53.150;18.160;2023-03-31T07:02:53;99842.14;;;14.12;57.20
77081;BME280;66009;53.150;18.160;2023-03-31T07:05:20;99840.13;;;13.55;58.52
77081;BME280;66009;53.150;18.160;2023-03-31T07:07:53;99836.96;;;13.12;58.86
77081;BME280;66009;53.150;18.160;2023-03-31T07:10:21;99843.27;;;12.85;60.33
77081;BME280;66009;53.150;18.160;2023-03-31T07:12:49;99843.78;;;12.62;61.08
77081;BME280;66009;53.150;18.160;2023-03-31T07:15:16;99841.13;;;12.49;61.36
77081;BME280;66009;53.150;18.160;2023-03-31T07:17:43;99840.93;;;12.39;61.82
77081;BME280;66009;53.150;18.160;2023-03-31T07:20:14;99841.41;;;12.36;62.51
77081;BME280;66009;53.150;18.160;2023-03-31T07:22:42;99840.80;;;12.33;62.64
77081;BME280;66009;53.150;18.160;2023-03-31T07:25:10;99842.73;;;12.33;63.55
77081;BME280;66009;53.150;18.160;2023-03-31T07:27:38;99841.52;;;12.38;63.98
77081;BME280;66009;53.150;18.160;2023-03-31T07:30:15;99841.27;;;12.40;64.03
77081;BME280;66009;53.150;18.160;2023-03-31T07:32:45;99836.51;;;12.40;64.18
77081;BME280;66009;53.150;18.160;2023-03-31T07:35:12;99836.60;;;12.43;64.00
77081;BME280;66009;53.150;18.160;2023-03-31T07:37:41;99831.90;;;12.50;63.61
77081;BME280;66009;53.150;18.160;2023-03-31T07:40:11;99830.58;;;12.62;63.71
77081;BME280;66009;53.150;18.160;2023-03-31T07:42:38;99834.39;;;12.68;64.14
77081;BME280;66009;53.150;18.160;2023-03-31T07:45:06;99831.85;;;12.71;64.08
77081;BME280;66009;53.150;18.160;2023-03-31T07:47:33;79866.49;;;-15.40;50.96
77081;BME280;66009;53.150;18.160;2023-03-31T07:50:01;-1.00;;;-128.00;-1.00
77081;BME280;66009;53.150;18.160;2023-03-31T07:52:27;-1.00;;;-128.00;-1.00
77081;BME280;66009;53.150;18.160;2023-03-31T07:54:54;-1.00;;;-128.00;-1.00
77081;BME280;66009;53.150;18.160;2023-03-31T07:57:20;-1.00;;;-128.00;-1.00
77081;BME280;66009;53.150;18.160;2023-03-31T07:59:47;-1.00;;;-128.00;-1.00
77081;BME280;66009;53.150;18.160;2023-03-31T08:02:15;-1.00;;;-128.00;-1.00
77081;BME280;66009;53.150;18.160;2023-03-31T08:04:43;-1.00;;;-128.00;-1.00
77081;BME280;66009;53.150;18.160;2023-03-31T08:07:12;-1.00;;;-128.00;-1.00
77081;BME280;66009;53.150;18.160;2023-03-31T08:09:39;-1.00;;;-128.00;-1.00
77081;BME280;66009;53.150;18.160;2023-03-31T08:12:06;-1.00;;;-128.00;-1.00
77081;BME280;66009;53.150;18.160;2023-03-31T08:14:33;-1.00;;;-128.00;-1.00
77081;BME280;66009;53.150;18.160;2023-03-31T08:16:59;-1.00;;;-128.00;-1.00
77081;BME280;66009;53.150;18.160;2023-03-31T08:19:26;-1.00;;;-128.00;-1.00
77081;BME280;66009;53.150;18.160;2023-03-31T08:21:53;-1.00;;;-128.00;-1.00
77081;BME280;66009;53.150;18.160;2023-03-31T08:24:20;-1.00;;;-128.00;-1.00
77081;BME280;66009;53.150;18.160;2023-03-31T08:26:46;-1.00;;;-128.00;-1.00
77081;BME280;66009;53.150;18.160;2023-03-31T08:29:13;-1.00;;;-128.00;-1.00
77081;BME280;66009;53.150;18.160;2023-03-31T08:31:40;-1.00;;;-128.00;-1.00
77081;BME280;66009;53.150;18.160;2023-03-31T08:34:07;-1.00;;;-128.00;-1.00
77081;BME280;66009;53.150;18.160;2023-03-31T08:36:34;-1.00;;;-128.00;-1.00
77081;BME280;66009;53.150;18.160;2023-03-31T08:39:01;-1.00;;;-128.00;-1.00
77081;BME280;66009;53.150;18.160;2023-03-31T08:44:36;-1.00;;;-128.00;-1.00
77081;BME280;66009;53.150;18.160;2023-03-31T08:47:08;-1.00;;;-128.00;-1.00
77081;BME280;66009;53.150;18.160;2023-03-31T08:49:43;-1.00;;;-128.00;-1.00
77081;BME280;66009;53.150;18.160;2023-03-31T08:52:14;-1.00;;;-128.00;-1.00
77081;BME280;66009;53.150;18.160;2023-03-31T08:54:46;-1.00;;;-128.00;-1.00
77081;BME280;66009;53.150;18.160;2023-03-31T08:57:23;-1.00;;;-128.00;-1.00
77081;BME280;66009;53.150;18.160;2023-03-31T08:59:51;-1.00;;;-128.00;-1.00
77081;BME280;66009;53.150;18.160;2023-03-31T09:03:08;-1.00;;;-128.00;-1.00
77081;BME280;66009;53.150;18.160;2023-03-31T09:05:57;-1.00;;;-128.00;-1.00
77081;BME280;66009;53.150;18.160;2023-03-31T09:08:40;-1.00;;;-128.00;-1.00
77081;BME280;66009;53.150;18.160;2023-03-31T09:11:12;-1.00;;;-128.00;-1.00
77081;BME280;66009;53.150;18.160;2023-03-31T09:18:58;-1.00;;;-128.00;-1.00
77081;BME280;66009;53.150;18.160;2023-03-31T09:26:48;-1.00;;;-128.00;-1.00
77081;BME280;66009;53.150;18.160;2023-03-31T09:29:22;-1.00;;;-128.00;-1.00
77081;BME280;66009;53.150;18.160;2023-03-31T09:32:12;-1.00;;;-128.00;-1.00
77081;BME280;66009;53.150;18.160;2023-03-31T09:34:39;-1.00;;;-128.00;-1.00
77081;BME280;66009;53.150;18.160;2023-03-31T09:37:09;-1.00;;;-128.00;-1.00
77081;BME280;66009;53.150;18.160;2023-03-31T09:39:37;-1.00;;;-128.00;-1.00
77081;BME280;66009;53.150;18.160;2023-03-31T09:42:04;-1.00;;;-128.00;-1.00
77081;BME280;66009;53.150;18.160;2023-03-31T09:44:43;-1.00;;;-128.00;-1.00
77081;BME280;66009;53.150;18.160;2023-03-31T09:47:36;-1.00;;;-128.00;-1.00
77081;BME280;66009;53.150;18.160;2023-03-31T09:50:06;-1.00;;;-128.00;-1.00
77081;BME280;66009;53.150;18.160;2023-03-31T09:52:36;-1.00;;;-128.00;-1.00
77081;BME280;66009;53.150;18.160;2023-03-31T09:55:24;-1.00;;;-128.00;-1.00
77081;BME280;66009;53.150;18.160;2023-03-31T09:57:52;-1.00;;;-128.00;-1.00
77081;BME280;66009;53.150;18.160;2023-03-31T10:00:21;-1.00;;;-128.00;-1.00
77081;BME280;66009;53.150;18.160;2023-03-31T10:07:49;-1.00;;;-128.00;-1.00
77081;BME280;66009;53.150;18.160;2023-03-31T10:10:32;-1.00;;;-128.00;-1.00
77081;BME280;66009;53.150;18.160;2023-03-31T10:13:01;-1.00;;;-128.00;-1.00
77081;BME280;66009;53.150;18.160;2023-03-31T10:15:36;-1.00;;;-128.00;-1.00
77081;BME280;66009;53.150;18.160;2023-03-31T10:18:03;-1.00;;;-128.00;-1.00
77081;BME280;66009;53.150;18.160;2023-03-31T10:20:37;-1.00;;;-128.00;-1.00
77081;BME280;66009;53.150;18.160;2023-03-31T10:23:26;-1.00;;;-128.00;-1.00
77081;BME280;66009;53.150;18.160;2023-03-31T10:25:53;-1.00;;;-128.00;-1.00
77081;BME280;66009;53.150;18.160;2023-03-31T10:28:21;-1.00;;;-128.00;-1.00
77081;BME280;66009;53.150;18.160;2023-03-31T10:30:53;-1.00;;;-128.00;-1.00
77081;BME280;66009;53.150;18.160;2023-03-31T10:33:23;-1.00;;;-128.00;-1.00
77081;BME280;66009;53.150;18.160;2023-03-31T10:35:58;-1.00;;;-128.00;-1.00
77081;BME280;66009;53.150;18.160;2023-03-31T10:38:29;-1.00;;;-128.00;-1.00
77081;BME280;66009;53.150;18.160;2023-03-31T10:40:57;-1.00;;;-128.00;-1.00
77081;BME280;66009;53.150;18.160;2023-03-31T10:43:28;-1.00;;;-128.00;-1.00
77081;BME280;66009;53.150;18.160;2023-03-31T10:45:58;-1.00;;;-128.00;-1.00
77081;BME280;66009;53.150;18.160;2023-03-31T10:51:04;-1.00;;;-128.00;-1.00
77081;BME280;66009;53.150;18.160;2023-03-31T10:53:46;-1.00;;;-128.00;-1.00
77081;BME280;66009;53.150;18.160;2023-03-31T11:15:29;-1.00;;;-128.00;-1.00
77081;BME280;66009;53.150;18.160;2023-03-31T11:26:02;-1.00;;;-128.00;-1.00
77081;BME280;66009;53.150;18.160;2023-03-31T11:29:00;-1.00;;;-128.00;-1.00
77081;BME280;66009;53.150;18.160;2023-03-31T11:31:48;-1.00;;;-128.00;-1.00
77081;BME280;66009;53.150;18.160;2023-03-31T11:34:39;-1.00;;;-128.00;-1.00
77081;BME280;66009;53.150;18.160;2023-03-31T11:40:13;-1.00;;;-128.00;-1.00
77081;BME280;66009;53.150;18.160;2023-03-31T11:42:56;-1.00;;;-128.00;-1.00
77081;BME280;66009;53.150;18.160;2023-03-31T11:45:37;-1.00;;;-128.00;-1.00
77081;BME280;66009;53.150;18.160;2023-03-31T11:48:13;-1.00;;;-128.00;-1.00
77081;BME280;66009;53.150;18.160;2023-03-31T11:50:44;-1.00;;;-128.00;-1.00
77081;BME280;66009;53.150;18.160;2023-03-31T11:53:22;-1.00;;;-128.00;-1.00
77081;BME280;66009;53.150;18.160;2023-03-31T11:55:52;-1.00;;;-128.00;-1.00
77081;BME280;66009;53.150;18.160;2023-03-31T12:06:21;-1.00;;;-128.00;-1.00
77081;BME280;66009;53.150;18.160;2023-03-31T12:14:58;-1.00;;;-128.00;-1.00
77081;BME280;66009;53.150;18.160;2023-03-31T12:17:28;-1.00;;;-128.00;-1.00
77081;BME280;66009;53.150;18.160;2023-03-31T12:20:05;-1.00;;;-128.00;-1.00
77081;BME280;66009;53.150;18.160;2023-03-31T12:22:44;-1.00;;;-128.00;-1.00
77081;BME280;66009;53.150;18.160;2023-03-31T12:25:13;-1.00;;;-128.00;-1.00
77081;BME280;66009;53.150;18.160;2023-03-31T12:27:45;-1.00;;;-128.00;-1.00
77081;BME280;66009;53.150;18.160;2023-03-31T12:30:30;-1.00;;;-128.00;-1.00
77081;BME280;66009;53.150;18.160;2023-03-31T12:33:05;-1.00;;;-128.00;-1.00
77081;BME280;66009;53.150;18.160;2023-03-31T12:41:30;-1.00;;;-128.00;-1.00
77081;BME280;66009;53.150;18.160;2023-03-31T12:55:10;-1.00;;;-128.00;-1.00
77081;BME280;66009;53.150;18.160;2023-03-31T12:57:44;-1.00;;;-128.00;-1.00
77081;BME280;66009;53.150;18.160;2023-03-31T13:00:26;-1.00;;;-128.00;-1.00
77081;BME280;66009;53.150;18.160;2023-03-31T13:06:01;-1.00;;;-128.00;-1.00
77081;BME280;66009;53.150;18.160;2023-03-31T13:09:04;-1.00;;;-128.00;-1.00
77081;BME280;66009;53.150;18.160;2023-03-31T13:14:13;-1.00;;;-128.00;-1.00
77081;BME280;66009;53.150;18.160;2023-03-31T13:16:42;-1.00;;;-128.00;-1.00
77081;BME280;66009;53.150;18.160;2023-03-31T13:19:11;-1.00;;;-128.00;-1.00
77081;BME280;66009;53.150;18.160;2023-03-31T13:21:54;-1.00;;;-128.00;-1.00
77081;BME280;66009;53.150;18.160;2023-03-31T13:24:22;-1.00;;;-128.00;-1.00
77081;BME280;66009;53.150;18.160;2023-03-31T13:26:51;-1.00;;;-128.00;-1.00
77081;BME280;66009;53.150;18.160;2023-03-31T13:34:37;-1.00;;;-128.00;-1.00
77081;BME280;66009;53.150;18.160;2023-03-31T13:37:16;-1.00;;;-128.00;-1.00
77081;BME280;66009;53.150;18.160;2023-03-31T13:45:25;-1.00;;;-128.00;-1.00
77081;BME280;66009;53.150;18.160;2023-03-31T13:51:09;-1.00;;;-128.00;-1.00
77081;BME280;66009;53.150;18.160;2023-03-31T14:02:25;-1.00;;;-128.00;-1.00
77081;BME280;66009;53.150;18.160;2023-03-31T14:07:31;-1.00;;;-128.00;-1.00
77081;BME280;66009;53.150;18.160;2023-03-31T14:10:02;-1.00;;;-128.00;-1.00
77081;BME280;66009;53.150;18.160;2023-03-31T14:14:58;-1.00;;;-128.00;-1.00
77081;BME280;66009;53.150;18.160;2023-03-31T14:17:27;-1.00;;;-128.00;-1.00
77081;BME280;66009;53.150;18.160;2023-03-31T14:31:35;-1.00;;;-128.00;-1.00
77081;BME280;66009;53.150;18.160;2023-03-31T14:34:21;-1.00;;;-128.00;-1.00
77081;BME280;66009;53.150;18.160;2023-03-31T14:37:00;-1.00;;;-128.00;-1.00
77081;BME280;66009;53.150;18.160;2023-03-31T14:39:31;-1.00;;;-128.00;-1.00
77081;BME280;66009;53.150;18.160;2023-03-31T14:42:02;-1.00;;;-128.00;-1.00
77081;BME280;66009;53.150;18.160;2023-03-31T14:44:29;-1.00;;;-128.00;-1.00
77081;BME280;66009;53.150;18.160;2023-03-31T14:46:56;-1.00;;;-128.00;-1.00
77081;BME280;66009;53.150;18.160;2023-03-31T14:49:29;-1.00;;;-128.00;-1.00
77081;BME280;66009;53.150;18.160;2023-03-31T14:52:00;-1.00;;;-128.00;-1.00
77081;BME280;66009;53.150;18.160;2023-03-31T14:54:33;-1.00;;;-128.00;-1.00
77081;BME280;66009;53.150;18.160;2023-03-31T14:57:03;-1.00;;;-128.00;-1.00
77081;BME280;66009;53.150;18.160;2023-03-31T14:59:32;-1.00;;;-128.00;-1.00
77081;BME280;66009;53.150;18.160;2023-03-31T15:02:02;-1.00;;;-128.00;-1.00
77081;BME280;66009;53.150;18.160;2023-03-31T15:04:35;-1.00;;;-128.00;-1.00
77081;BME280;66009;53.150;18.160;2023-03-31T15:07:03;-1.00;;;-128.00;-1.00
77081;BME280;66009;53.150;18.160;2023-03-31T15:09:32;-1.00;;;-128.00;-1.00
77081;BME280;66009;53.150;18.160;2023-03-31T15:12:03;-1.00;;;-128.00;-1.00
77081;BME280;66009;53.150;18.160;2023-03-31T15:14:35;-1.00;;;-128.00;-1.00
77081;BME280;66009;53.150;18.160;2023-03-31T15:17:04;-1.00;;;-128.00;-1.00
77081;BME280;66009;53.150;18.160;2023-03-31T15:19:34;-1.00;;;-128.00;-1.00
77081;BME280;66009;53.150;18.160;2023-03-31T15:22:10;-1.00;;;-128.00;-1.00
77081;BME280;66009;53.150;18.160;2023-03-31T15:24:39;-1.00;;;-128.00;-1.00
77081;BME280;66009;53.150;18.160;2023-03-31T15:29:59;-1.00;;;-128.00;-1.00
77081;BME280;66009;53.150;18.160;2023-03-31T15:32:30;-1.00;;;-128.00;-1.00
77081;BME280;66009;53.150;18.160;2023-03-31T15:34:57;-1.00;;;-128.00;-1.00
77081;BME280;66009;53.150;18.160;2023-03-31T15:37:38;-1.00;;;-128.00;-1.00
77081;BME280;66009;53.150;18.160;2023-03-31T15:40:21;-1.00;;;-128.00;-1.00
77081;BME280;66009;53.150;18.160;2023-03-31T15:42:51;-1.00;;;-128.00;-1.00
77081;BME280;66009;53.150;18.160;2023-03-31T15:45:50;-1.00;;;-128.00;-1.00
77081;BME280;66009;53.150;18.160;2023-03-31T15:48:24;-1.00;;;-128.00;-1.00
77081;BME280;66009;53.150;18.160;2023-03-31T15:51:45;-1.00;;;-128.00;-1.00
77081;BME280;66009;53.150;18.160;2023-03-31T15:53:48;-1.00;;;-128.00;-1.00
77081;BME280;66009;53.150;18.160;2023-03-31T15:56:41;-1.00;;;-128.00;-1.00
77081;BME280;66009;53.150;18.160;2023-03-31T15:59:29;-1.00;;;-128.00;-1.00
77081;BME280;66009;53.150;18.160;2023-03-31T16:01:57;-1.00;;;-128.00;-1.00
77081;BME280;66009;53.150;18.160;2023-03-31T16:04:29;-1.00;;;-128.00;-1.00
77081;BME280;66009;53.150;18.160;2023-03-31T16:12:20;-1.00;;;-128.00;-1.00
77081;BME280;66009;53.150;18.160;2023-03-31T16:14:57;-1.00;;;-128.00;-1.00
77081;BME280;66009;53.150;18.160;2023-03-31T16:17:29;-1.00;;;-128.00;-1.00
77081;BME280;66009;53.150;18.160;2023-03-31T16:20:02;-1.00;;;-128.00;-1.00
77081;BME280;66009;53.150;18.160;2023-03-31T16:22:39;-1.00;;;-128.00;-1.00
77081;BME280;66009;53.150;18.160;2023-03-31T16:25:11;-1.00;;;-128.00;-1.00
77081;BME280;66009;53.150;18.160;2023-03-31T16:27:45;-1.00;;;-128.00;-1.00
77081;BME280;66009;53.150;18.160;2023-03-31T16:30:17;-1.00;;;-128.00;-1.00
77081;BME280;66009;53.150;18.160;2023-03-31T16:35:31;-1.00;;;-128.00;-1.00
77081;BME280;66009;53.150;18.160;2023-03-31T16:37:58;-1.00;;;-128.00;-1.00
77081;BME280;66009;53.150;18.160;2023-03-31T16:40:33;-1.00;;;-128.00;-1.00
77081;BME280;66009;53.150;18.160;2023-03-31T16:45:34;-1.00;;;-128.00;-1.00
77081;BME280;66009;53.150;18.160;2023-03-31T16:48:01;-1.00;;;-128.00;-1.00
77081;BME280;66009;53.150;18.160;2023-03-31T16:50:28;-1.00;;;-128.00;-1.00
77081;BME280;66009;53.150;18.160;2023-03-31T16:52:54;-1.00;;;-128.00;-1.00
77081;BME280;66009;53.150;18.160;2023-03-31T16:55:21;-1.00;;;-128.00;-1.00
77081;BME280;66009;53.150;18.160;2023-03-31T16:57:48;-1.00;;;-128.00;-1.00
77081;BME280;66009;53.150;18.160;2023-03-31T17:00:14;-1.00;;;-128.00;-1.00
77081;BME280;66009;53.150;18.160;2023-03-31T17:02:41;-1.00;;;-128.00;-1.00
77081;BME280;66009;53.150;18.160;2023-03-31T17:05:08;-1.00;;;-128.00;-1.00
77081;BME280;66009;53.150;18.160;2023-03-31T17:07:35;-1.00;;;-128.00;-1.00
77081;BME280;66009;53.150;18.160;2023-03-31T17:10:01;-1.00;;;-128.00;-1.00
77081;BME280;66009;53.150;18.160;2023-03-31T17:12:28;-1.00;;;-128.00;-1.00
77081;BME280;66009;53.150;18.160;2023-03-31T17:14:54;-1.00;;;-128.00;-1.00
77081;BME280;66009;53.150;18.160;2023-03-31T17:17:21;-1.00;;;-128.00;-1.00
77081;BME280;66009;53.150;18.160;2023-03-31T17:19:48;-1.00;;;-128.00;-1.00
77081;BME280;66009;53.150;18.160;2023-03-31T17:22:14;-1.00;;;-128.00;-1.00
77081;BME280;66009;53.150;18.160;2023-03-31T17:24:41;-1.00;;;-128.00;-1.00
77081;BME280;66009;53.150;18.160;2023-03-31T17:27:08;-1.00;;;-128.00;-1.00
77081;BME280;66009;53.150;18.160;2023-03-31T17:29:34;-1.00;;;-128.00;-1.00
77081;BME280;66009;53.150;18.160;2023-03-31T17:32:01;-1.00;;;-128.00;-1.00
77081;BME280;66009;53.150;18.160;2023-03-31T17:34:27;-1.00;;;-128.00;-1.00
77081;BME280;66009;53.150;18.160;2023-03-31T17:36:54;-1.00;;;-128.00;-1.00
77081;BME280;66009;53.150;18.160;2023-03-31T17:39:22;-1.00;;;-128.00;-1.00
77081;BME280;66009;53.150;18.160;2023-03-31T17:41:48;-1.00;;;-128.00;-1.00
77081;BME280;66009;53.150;18.160;2023-03-31T17:44:15;-1.00;;;-128.00;-1.00
77081;BME280;66009;53.150;18.160;2023-03-31T17:46:42;-1.00;;;-128.00;-1.00
77081;BME280;66009;53.150;18.160;2023-03-31T17:49:08;-1.00;;;-128.00;-1.00
77081;BME280;66009;53.150;18.160;2023-03-31T17:51:35;-1.00;;;-128.00;-1.00
77081;BME280;66009;53.150;18.160;2023-03-31T17:54:01;-1.00;;;-128.00;-1.00
77081;BME280;66009;53.150;18.160;2023-03-31T17:56:29;-1.00;;;-128.00;-1.00
77081;BME280;66009;53.150;18.160;2023-03-31T17:58:55;-1.00;;;-128.00;-1.00
77081;BME280;66009;53.150;18.160;2023-03-31T18:01:22;-1.00;;;-128.00;-1.00
77081;BME280;66009;53.150;18.160;2023-03-31T18:03:49;-1.00;;;-128.00;-1.00
77081;BME280;66009;53.150;18.160;2023-03-31T18:06:15;-1.00;;;-128.00;-1.00
77081;BME280;66009;53.150;18.160;2023-03-31T18:08:43;-1.00;;;-128.00;-1.00
77081;BME280;66009;53.150;18.160;2023-03-31T18:11:10;-1.00;;;-128.00;-1.00
77081;BME280;66009;53.150;18.160;2023-03-31T18:13:37;-1.00;;;-128.00;-1.00
77081;BME280;66009;53.150;18.160;2023-03-31T18:16:05;-1.00;;;-128.00;-1.00
77081;BME280;66009;53.150;18.160;2023-03-31T18:18:35;-1.00;;;-128.00;-1.00
77081;BME280;66009;53.150;18.160;2023-03-31T18:21:06;-1.00;;;-128.00;-1.00
77081;BME280;66009;53.150;18.160;2023-03-31T18:23:34;-1.00;;;-128.00;-1.00
77081;BME280;66009;53.150;18.160;2023-03-31T18:26:01;-1.00;;;-128.00;-1.00
77081;BME280;66009;53.150;18.160;2023-03-31T18:28:30;-1.00;;;-128.00;-1.00
77081;BME280;66009;53.150;18.160;2023-03-31T18:31:04;-1.00;;;-128.00;-1.00
77081;BME280;66009;53.150;18.160;2023-03-31T18:33:31;-1.00;;;-128.00;-1.00
77081;BME280;66009;53.150;18.160;2023-03-31T18:35:58;-1.00;;;-128.00;-1.00
77081;BME280;66009;53.150;18.160;2023-03-31T18:38:24;-1.00;;;-128.00;-1.00
77081;BME280;66009;53.150;18.160;2023-03-31T18:40:52;-1.00;;;-128.00;-1.00
77081;BME280;66009;53.150;18.160;2023-03-31T18:43:20;-1.00;;;-128.00;-1.00
77081;BME280;66009;53.150;18.160;2023-03-31T18:45:51;-1.00;;;-128.00;-1.00
77081;BME280;66009;53.150;18.160;2023-03-31T18:48:20;-1.00;;;-128.00;-1.00
77081;BME280;66009;53.150;18.160;2023-03-31T18:50:51;-1.00;;;-128.00;-1.00
77081;BME280;66009;53.150;18.160;2023-03-31T18:53:19;-1.00;;;-128.00;-1.00
77081;BME280;66009;53.150;18.160;2023-03-31T18:56:04;-1.00;;;-128.00;-1.00
77081;BME280;66009;53.150;18.160;2023-03-31T18:58:31;-1.00;;;-128.00;-1.00
77081;BME280;66009;53.150;18.160;2023-03-31T19:00:58;-1.00;;;-128.00;-1.00
77081;BME280;66009;53.150;18.160;2023-03-31T19:03:27;-1.00;;;-128.00;-1.00
77081;BME280;66009;53.150;18.160;2023-03-31T19:06:05;-1.00;;;-128.00;-1.00
77081;BME280;66009;53.150;18.160;2023-03-31T19:08:35;-1.00;;;-128.00;-1.00
77081;BME280;66009;53.150;18.160;2023-03-31T19:11:08;-1.00;;;-128.00;-1.00
77081;BME280;66009;53.150;18.160;2023-03-31T19:13:36;-1.00;;;-128.00;-1.00
77081;BME280;66009;53.150;18.160;2023-03-31T19:16:04;-1.00;;;-128.00;-1.00
77081;BME280;66009;53.150;18.160;2023-03-31T19:18:31;-1.00;;;-128.00;-1.00
77081;BME280;66009;53.150;18.160;2023-03-31T19:20:58;-1.00;;;-128.00;-1.00
77081;BME280;66009;53.150;18.160;2023-03-31T19:23:26;-1.00;;;-128.00;-1.00
77081;BME280;66009;53.150;18.160;2023-03-31T19:25:53;-1.00;;;-128.00;-1.00
77081;BME280;66009;53.150;18.160;2023-03-31T19:28:21;-1.00;;;-128.00;-1.00
77081;BME280;66009;53.150;18.160;2023-03-31T19:30:51;-1.00;;;-128.00;-1.00
77081;BME280;66009;53.150;18.160;2023-03-31T19:33:18;-1.00;;;-128.00;-1.00
77081;BME280;66009;53.150;18.160;2023-03-31T19:35:46;-1.00;;;-128.00;-1.00
77081;BME280;66009;53.150;18.160;2023-03-31T19:38:13;-1.00;;;-128.00;-1.00
77081;BME280;66009;53.150;18.160;2023-03-31T19:40:41;-1.00;;;-128.00;-1.00
77081;BME280;66009;53.150;18.160;2023-03-31T19:43:19;-1.00;;;-128.00;-1.00
77081;BME280;66009;53.150;18.160;2023-03-31T19:45:47;-1.00;;;-128.00;-1.00
77081;BME280;66009;53.150;18.160;2023-03-31T19:48:15;-1.00;;;-128.00;-1.00
77081;BME280;66009;53.150;18.160;2023-03-31T19:50:50;-1.00;;;-128.00;-1.00
77081;BME280;66009;53.150;18.160;2023-03-31T19:53:18;-1.00;;;-128.00;-1.00
77081;BME280;66009;53.150;18.160;2023-03-31T19:55:59;-1.00;;;-128.00;-1.00
77081;BME280;66009;53.150;18.160;2023-03-31T19:58:28;-1.00;;;-128.00;-1.00
77081;BME280;66009;53.150;18.160;2023-03-31T20:00:56;-1.00;;;-128.00;-1.00
77081;BME280;66009;53.150;18.160;2023-03-31T20:03:24;-1.00;;;-128.00;-1.00
77081;BME280;66009;53.150;18.160;2023-03-31T20:05:51;-1.00;;;-128.00;-1.00
77081;BME280;66009;53.150;18.160;2023-03-31T20:08:19;-1.00;;;-128.00;-1.00
77081;BME280;66009;53.150;18.160;2023-03-31T20:10:46;-1.00;;;-128.00;-1.00
77081;BME280;66009;53.150;18.160;2023-03-31T20:13:12;-1.00;;;-128.00;-1.00
77081;BME280;66009;53.150;18.160;2023-03-31T20:15:39;-1.00;;;-128.00;-1.00
77081;BME280;66009;53.150;18.160;2023-03-31T20:18:06;-1.00;;;-128.00;-1.00
77081;BME280;66009;53.150;18.160;2023-03-31T20:20:33;-1.00;;;-128.00;-1.00
77081;BME280;66009;53.150;18.160;2023-03-31T20:22:59;-1.00;;;-128.00;-1.00
77081;BME280;66009;53.150;18.160;2023-03-31T20:25:26;-1.00;;;-128.00;-1.00
77081;BME280;66009;53.150;18.160;2023-03-31T20:27:52;-1.00;;;-128.00;-1.00
77081;BME280;66009;53.150;18.160;2023-03-31T20:30:19;-1.00;;;-128.00;-1.00
77081;BME280;66009;53.150;18.160;2023-03-31T20:32:46;-1.00;;;-128.00;-1.00
77081;BME280;66009;53.150;18.160;2023-03-31T20:35:12;-1.00;;;-128.00;-1.00
77081;BME280;66009;53.150;18.160;2023-03-31T20:37:39;-1.00;;;-128.00;-1.00
77081;BME280;66009;53.150;18.160;2023-03-31T20:40:06;-1.00;;;-128.00;-1.00
77081;BME280;66009;53.150;18.160;2023-03-31T20:42:33;-1.00;;;-128.00;-1.00
77081;BME280;66009;53.150;18.160;2023-03-31T20:45:01;-1.00;;;-128.00;-1.00
77081;BME280;66009;53.150;18.160;2023-03-31T20:47:28;-1.00;;;-128.00;-1.00
77081;BME280;66009;53.150;18.160;2023-03-31T20:49:55;-1.00;;;-128.00;-1.00
77081;BME280;66009;53.150;18.160;2023-03-31T20:52:21;-1.00;;;-128.00;-1.00
77081;BME280;66009;53.150;18.160;2023-03-31T20:54:49;-1.00;;;-128.00;-1.00
77081;BME280;66009;53.150;18.160;2023-03-31T20:57:16;-1.00;;;-128.00;-1.00
77081;BME280;66009;53.150;18.160;2023-03-31T20:59:43;-1.00;;;-128.00;-1.00
77081;BME280;66009;53.150;18.160;2023-03-31T21:02:11;-1.00;;;-128.00;-1.00
77081;BME280;66009;53.150;18.160;2023-03-31T21:04:38;-1.00;;;-128.00;-1.00
77081;BME280;66009;53.150;18.160;2023-03-31T21:07:04;-1.00;;;-128.00;-1.00
77081;BME280;66009;53.150;18.160;2023-03-31T21:09:31;-1.00;;;-128.00;-1.00
77081;BME280;66009;53.150;18.160;2023-03-31T21:11:58;-1.00;;;-128.00;-1.00
77081;BME280;66009;53.150;18.160;2023-03-31T21:14:26;-1.00;;;-128.00;-1.00
77081;BME280;66009;53.150;18.160;2023-03-31T21:16:53;-1.00;;;-128.00;-1.00
77081;BME280;66009;53.150;18.160;2023-03-31T21:19:19;-1.00;;;-128.00;-1.00
77081;BME280;66009;53.150;18.160;2023-03-31T21:21:46;-1.00;;;-128.00;-1.00
77081;BME280;66009;53.150;18.160;2023-03-31T21:24:12;-1.00;;;-128.00;-1.00
77081;BME280;66009;53.150;18.160;2023-03-31T21:26:39;-1.00;;;-128.00;-1.00
77081;BME280;66009;53.150;18.160;2023-03-31T21:29:06;-1.00;;;-128.00;-1.00
77081;BME280;66009;53.150;18.160;2023-03-31T21:31:32;-1.00;;;-128.00;-1.00
77081;BME280;66009;53.150;18.160;2023-03-31T21:33:59;-1.00;;;-128.00;-1.00
77081;BME280;66009;53.150;18.160;2023-03-31T21:36:28;-1.00;;;-128.00;-1.00
77081;BME280;66009;53.150;18.160;2023-03-31T21:38:55;-1.00;;;-128.00;-1.00
77081;BME280;66009;53.150;18.160;2023-03-31T21:41:27;-1.00;;;-128.00;-1.00
77081;BME280;66009;53.150;18.160;2023-03-31T21:43:55;-1.00;;;-128.00;-1.00
77081;BME280;66009;53.150;18.160;2023-03-31T21:46:26;-1.00;;;-128.00;-1.00
77081;BME280;66009;53.150;18.160;2023-03-31T21:48:54;-1.00;;;-128.00;-1.00
77081;BME280;66009;53.150;18.160;2023-03-31T21:51:20;-1.00;;;-128.00;-1.00
77081;BME280;66009;53.150;18.160;2023-03-31T21:53:49;-1.00;;;-128.00;-1.00
77081;BME280;66009;53.150;18.160;2023-03-31T21:56:16;-1.00;;;-128.00;-1.00
77081;BME280;66009;53.150;18.160;2023-03-31T21:58:43;-1.00;;;-128.00;-1.00
77081;BME280;66009;53.150;18.160;2023-03-31T22:01:10;-1.00;;;-128.00;-1.00
77081;BME280;66009;53.150;18.160;2023-03-31T22:03:37;-1.00;;;-128.00;-1.00
77081;BME280;66009;53.150;18.160;2023-03-31T22:06:05;-1.00;;;-128.00;-1.00
77081;BME280;66009;53.150;18.160;2023-03-31T22:08:34;-1.00;;;-128.00;-1.00
77081;BME280;66009;53.150;18.160;2023-03-31T22:11:04;-1.00;;;-128.00;-1.00
77081;BME280;66009;53.150;18.160;2023-03-31T22:13:31;-1.00;;;-128.00;-1.00
77081;BME280;66009;53.150;18.160;2023-03-31T22:15:57;-1.00;;;-128.00;-1.00
77081;BME280;66009;53.150;18.160;2023-03-31T22:18:28;-1.00;;;-128.00;-1.00
77081;BME280;66009;53.150;18.160;2023-03-31T22:20:55;-1.00;;;-128.00;-1.00
77081;BME280;66009;53.150;18.160;2023-03-31T22:23:22;-1.00;;;-128.00;-1.00
77081;BME280;66009;53.150;18.160;2023-03-31T22:25:49;-1.00;;;-128.00;-1.00
77081;BME280;66009;53.150;18.160;2023-03-31T22:28:16;-1.00;;;-128.00;-1.00
77081;BME280;66009;53.150;18.160;2023-03-31T22:30:43;-1.00;;;-128.00;-1.00
77081;BME280;66009;53.150;18.160;2023-03-31T22:33:10;-1.00;;;-128.00;-1.00